Terminal Aerodrome Forecast
Issued by NWS

Home | Current Version | Previous Version | Text Only | Print | Product List | Glossary On
Versions: 1 2 3 4 5 6 7 8 9 10 11 12 13 14 15 16 17
000
FTUS41 KPBZ 271700
TAFFKL
TAF
KFKL 271731Z 2718/2818 18008KT P6SM BKN035
     FM271900 19005KT P6SM SCT070
     FM280100 20010KT P6SM VCSH OVC035
      TEMPO 2803/2806 5SM -SHRA OVC015
     FM280600 25009KT P6SM VCSH SCT008 OVC015
     FM281000 27004KT 4SM -RA BR OVC007
     FM281600 30006KT P6SM OVC020
      AMD LTD TO CLD VIS AND WIND=

USA.gov is the U.S. government's official web portal to all federal, state and local government web resources and services.